sensor_id;sensor_type;location;lat;lon;timestamp;pressure;altitude;pressure_sealevel;temperature;humidity
9077;BME280;4574;51.072;17.174;2022-11-20T00:02:04;99885.69;;;-2.07;100.00
9077;BME280;4574;51.072;17.174;2022-11-20T00:04:32;99886.44;;;-2.22;100.00
9077;BME280;4574;51.072;17.174;2022-11-20T00:07:01;99884.31;;;-2.31;100.00
9077;BME280;4574;51.072;17.174;2022-11-20T00:09:29;99885.81;;;-2.44;100.00
9077;BME280;4574;51.072;17.174;2022-11-20T00:11:57;99881.03;;;-2.52;100.00
9077;BME280;4574;51.072;17.174;2022-11-20T00:14:26;99878.59;;;-2.55;100.00
9077;BME280;4574;51.072;17.174;2022-11-20T00:16:54;99886.56;;;-2.59;100.00
9077;BME280;4574;51.072;17.174;2022-11-20T00:19:24;99874.06;;;-2.68;100.00
9077;BME280;4574;51.072;17.174;2022-11-20T00:21:52;99880.75;;;-2.64;100.00
9077;BME280;4574;51.072;17.174;2022-11-20T00:24:22;99871.78;;;-2.57;100.00
9077;BME280;4574;51.072;17.174;2022-11-20T00:26:50;99879.41;;;-2.54;100.00
9077;BME280;4574;51.072;17.174;2022-11-20T00:29:18;99886.56;;;-2.59;100.00
9077;BME280;4574;51.072;17.174;2022-11-20T00:31:47;99886.41;;;-2.56;100.00
9077;BME280;4574;51.072;17.174;2022-11-20T00:34:16;99879.25;;;-2.51;100.00
9077;BME280;4574;51.072;17.174;2022-11-20T00:36:45;99874.06;;;-2.51;100.00
9077;BME280;4574;51.072;17.174;2022-11-20T00:39:14;99873.88;;;-2.47;100.00
9077;BME280;4574;51.072;17.174;2022-11-20T00:41:42;99852.13;;;-2.61;100.00
9077;BME280;4574;51.072;17.174;2022-11-20T00:44:11;99877.22;;;-2.45;100.00
9077;BME280;4574;51.072;17.174;2022-11-20T00:46:39;99872.88;;;-2.44;100.00
9077;BME280;4574;51.072;17.174;2022-11-20T00:49:08;99881.50;;;-2.44;100.00
9077;BME280;4574;51.072;17.174;2022-11-20T00:51:36;99878.91;;;-2.44;100.00
9077;BME280;4574;51.072;17.174;2022-11-20T00:54:06;99874.94;;;-2.51;100.00
9077;BME280;4574;51.072;17.174;2022-11-20T00:56:34;99885.97;;;-2.47;100.00
9077;BME280;4574;51.072;17.174;2022-11-20T00:59:02;99887.44;;;-2.42;100.00
9077;BME280;4574;51.072;17.174;2022-11-20T01:01:31;99888.50;;;-2.46;100.00
9077;BME280;4574;51.072;17.174;2022-11-20T01:04:01;99885.06;;;-2.46;100.00
9077;BME280;4574;51.072;17.174;2022-11-20T01:06:31;99889.31;;;-2.45;100.00
9077;BME280;4574;51.072;17.174;2022-11-20T01:09:01;99894.50;;;-2.45;100.00
9077;BME280;4574;51.072;17.174;2022-11-20T01:11:34;99893.69;;;-2.46;100.00
9077;BME280;4574;51.072;17.174;2022-11-20T01:14:04;99892.81;;;-2.46;100.00
9077;BME280;4574;51.072;17.174;2022-11-20T01:16:36;99892.66;;;-2.60;100.00
9077;BME280;4574;51.072;17.174;2022-11-20T01:19:05;99897.94;;;-2.80;100.00
9077;BME280;4574;51.072;17.174;2022-11-20T01:21:35;99899.13;;;-2.87;100.00
9077;BME280;4574;51.072;17.174;2022-11-20T01:24:06;99896.84;;;-2.93;100.00
9077;BME280;4574;51.072;17.174;2022-11-20T01:26:38;99890.25;;;-3.00;100.00
9077;BME280;4574;51.072;17.174;2022-11-20T01:29:10;99898.81;;;-2.98;100.00
9077;BME280;4574;51.072;17.174;2022-11-20T01:31:41;99897.13;;;-2.99;100.00
9077;BME280;4574;51.072;17.174;2022-11-20T01:34:12;99894.69;;;-3.02;100.00
9077;BME280;4574;51.072;17.174;2022-11-20T01:36:41;99882.00;;;-3.08;100.00
9077;BME280;4574;51.072;17.174;2022-11-20T01:39:12;99893.34;;;-3.10;100.00
9077;BME280;4574;51.072;17.174;2022-11-20T01:41:44;99885.38;;;-3.06;100.00
9077;BME280;4574;51.072;17.174;2022-11-20T01:44:51;99882.41;;;-2.98;100.00
9077;BME280;4574;51.072;17.174;2022-11-20T01:47:25;99881.31;;;-2.93;100.00
9077;BME280;4574;51.072;17.174;2022-11-20T01:49:58;99881.16;;;-2.90;100.00
9077;BME280;4574;51.072;17.174;2022-11-20T01:52:30;99887.00;;;-2.86;100.00
9077;BME280;4574;51.072;17.174;2022-11-20T01:55:04;99876.59;;;-2.85;100.00
9077;BME280;4574;51.072;17.174;2022-11-20T01:57:36;99884.28;;;-2.83;100.00
9077;BME280;4574;51.072;17.174;2022-11-20T02:00:07;99886.06;;;-2.84;100.00
9077;BME280;4574;51.072;17.174;2022-11-20T02:02:37;99876.28;;;-2.96;100.00
9077;BME280;4574;51.072;17.174;2022-11-20T02:05:14;99879.63;;;-2.94;100.00
9077;BME280;4574;51.072;17.174;2022-11-20T02:07:45;99880.88;;;-3.02;100.00
9077;BME280;4574;51.072;17.174;2022-11-20T02:10:15;99869.63;;;-3.01;100.00
9077;BME280;4574;51.072;17.174;2022-11-20T02:12:44;99872.97;;;-2.99;100.00
9077;BME280;4574;51.072;17.174;2022-11-20T02:15:32;99873.50;;;-3.10;100.00
9077;BME280;4574;51.072;17.174;2022-11-20T02:18:01;99876.34;;;-3.16;100.00
9077;BME280;4574;51.072;17.174;2022-11-20T02:20:30;99871.31;;;-3.19;100.00
9077;BME280;4574;51.072;17.174;2022-11-20T02:23:03;99866.19;;;-3.20;100.00
9077;BME280;4574;51.072;17.174;2022-11-20T02:25:35;99873.28;;;-3.24;100.00
9077;BME280;4574;51.072;17.174;2022-11-20T02:28:04;99863.97;;;-3.28;100.00
9077;BME280;4574;51.072;17.174;2022-11-20T02:30:33;99867.53;;;-3.30;100.00
9077;BME280;4574;51.072;17.174;2022-11-20T02:33:02;99872.78;;;-3.32;100.00
9077;BME280;4574;51.072;17.174;2022-11-20T02:35:45;99865.78;;;-3.30;100.00
9077;BME280;4574;51.072;17.174;2022-11-20T02:38:14;99868.94;;;-3.23;100.00
9077;BME280;4574;51.072;17.174;2022-11-20T02:40:44;99875.72;;;-3.21;100.00
9077;BME280;4574;51.072;17.174;2022-11-20T02:43:19;99869.56;;;-3.18;100.00
9077;BME280;4574;51.072;17.174;2022-11-20T02:45:48;99873.78;;;-3.16;100.00
9077;BME280;4574;51.072;17.174;2022-11-20T02:48:16;99874.53;;;-3.14;100.00
9077;BME280;4574;51.072;17.174;2022-11-20T02:50:45;99865.00;;;-3.13;100.00
9077;BME280;4574;51.072;17.174;2022-11-20T02:53:13;99860.06;;;-3.18;100.00
9077;BME280;4574;51.072;17.174;2022-11-20T02:55:42;99861.78;;;-3.18;100.00
9077;BME280;4574;51.072;17.174;2022-11-20T02:58:11;99873.69;;;-3.14;100.00
9077;BME280;4574;51.072;17.174;2022-11-20T03:00:40;99876.13;;;-3.11;100.00
9077;BME280;4574;51.072;17.174;2022-11-20T03:03:09;99872.72;;;-3.12;100.00
9077;BME280;4574;51.072;17.174;2022-11-20T03:05:37;99866.78;;;-3.14;100.00
9077;BME280;4574;51.072;17.174;2022-11-20T03:08:05;99868.44;;;-3.13;100.00
9077;BME280;4574;51.072;17.174;2022-11-20T03:10:34;99860.06;;;-3.18;100.00
9077;BME280;4574;51.072;17.174;2022-11-20T03:13:02;99863.41;;;-3.16;100.00
9077;BME280;4574;51.072;17.174;2022-11-20T03:15:32;99866.91;;;-3.17;100.00
9077;BME280;4574;51.072;17.174;2022-11-20T03:18:01;99840.88;;;-3.32;100.00
9077;BME280;4574;51.072;17.174;2022-11-20T03:20:29;99865.22;;;-3.18;100.00
9077;BME280;4574;51.072;17.174;2022-11-20T03:22:57;99867.81;;;-3.18;100.00
9077;BME280;4574;51.072;17.174;2022-11-20T03:25:26;99861.78;;;-3.18;100.00
9077;BME280;4574;51.072;17.174;2022-11-20T03:27:54;99867.06;;;-3.20;100.00
9077;BME280;4574;51.072;17.174;2022-11-20T03:30:23;99866.34;;;-3.23;100.00
9077;BME280;4574;51.072;17.174;2022-11-20T03:32:57;99862.16;;;-3.26;100.00
9077;BME280;4574;51.072;17.174;2022-11-20T03:35:27;99861.25;;;-3.25;100.00
9077;BME280;4574;51.072;17.174;2022-11-20T03:37:55;99863.84;;;-3.25;100.00
9077;BME280;4574;51.072;17.174;2022-11-20T03:40:23;99864.75;;;-3.26;100.00
9077;BME280;4574;51.072;17.174;2022-11-20T03:42:52;99860.47;;;-3.27;100.00
9077;BME280;4574;51.072;17.174;2022-11-20T03:45:20;99854.69;;;-3.32;100.00
9077;BME280;4574;51.072;17.174;2022-11-20T03:47:49;99858.03;;;-3.30;100.00
9077;BME280;4574;51.072;17.174;2022-11-20T03:50:19;99872.78;;;-3.32;100.00
9077;BME280;4574;51.072;17.174;2022-11-20T03:52:47;99865.94;;;-3.33;100.00
9077;BME280;4574;51.072;17.174;2022-11-20T03:55:15;99864.41;;;-3.37;100.00
9077;BME280;4574;51.072;17.174;2022-11-20T03:57:44;99867.91;;;-3.38;100.00
9077;BME280;4574;51.072;17.174;2022-11-20T04:00:13;99865.34;;;-3.39;100.00
9077;BME280;4574;51.072;17.174;2022-11-20T04:02:42;99862.06;;;-3.43;100.00
9077;BME280;4574;51.072;17.174;2022-11-20T04:05:10;99866.31;;;-3.42;100.00
9077;BME280;4574;51.072;17.174;2022-11-20T04:07:40;99869.00;;;-3.43;100.00
9077;BME280;4574;51.072;17.174;2022-11-20T04:10:09;99869.00;;;-3.43;100.00
9077;BME280;4574;51.072;17.174;2022-11-20T04:12:37;99871.63;;;-3.45;100.00
9077;BME280;4574;51.072;17.174;2022-11-20T04:15:06;99876.13;;;-3.48;100.00
9077;BME280;4574;51.072;17.174;2022-11-20T04:17:34;99864.91;;;-3.49;100.00
9077;BME280;4574;51.072;17.174;2022-11-20T04:20:04;99876.16;;;-3.50;100.00
9077;BME280;4574;51.072;17.174;2022-11-20T04:22:32;99883.25;;;-3.53;100.00
9077;BME280;4574;51.072;17.174;2022-11-20T04:25:02;99873.03;;;-3.56;100.00
9077;BME280;4574;51.072;17.174;2022-11-20T04:27:31;99874.13;;;-3.62;100.00
9077;BME280;4574;51.072;17.174;2022-11-20T04:29:59;99869.72;;;-3.60;100.00
9077;BME280;4574;51.072;17.174;2022-11-20T04:32:28;99874.91;;;-3.60;100.00
9077;BME280;4574;51.072;17.174;2022-11-20T04:34:56;99880.16;;;-3.61;100.00
9077;BME280;4574;51.072;17.174;2022-11-20T04:37:25;99883.66;;;-3.62;100.00
9077;BME280;4574;51.072;17.174;2022-11-20T04:39:53;99880.63;;;-3.72;100.00
9077;BME280;4574;51.072;17.174;2022-11-20T04:42:23;99884.50;;;-3.82;100.00
9077;BME280;4574;51.072;17.174;2022-11-20T04:44:57;99873.41;;;-3.84;100.00
9077;BME280;4574;51.072;17.174;2022-11-20T04:47:25;99869.84;;;-3.81;100.00
9077;BME280;4574;51.072;17.174;2022-11-20T04:49:54;99861.38;;;-3.85;100.00
9077;BME280;4574;51.072;17.174;2022-11-20T04:52:22;99862.09;;;-3.81;100.00
9077;BME280;4574;51.072;17.174;2022-11-20T04:54:51;99863.00;;;-3.82;100.00
9077;BME280;4574;51.072;17.174;2022-11-20T04:57:20;99858.78;;;-3.85;100.00
9077;BME280;4574;51.072;17.174;2022-11-20T04:59:50;99863.06;;;-3.84;100.00
9077;BME280;4574;51.072;17.174;2022-11-20T05:02:19;99863.06;;;-3.84;100.00
9077;BME280;4574;51.072;17.174;2022-11-20T05:04:47;99851.03;;;-3.85;100.00
9077;BME280;4574;51.072;17.174;2022-11-20T05:07:16;99845.88;;;-3.85;100.00
9077;BME280;4574;51.072;17.174;2022-11-20T05:09:44;99852.78;;;-3.85;100.00
9077;BME280;4574;51.072;17.174;2022-11-20T05:12:13;99840.84;;;-3.88;100.00
9077;BME280;4574;51.072;17.174;2022-11-20T05:14:41;99837.47;;;-3.90;100.00
9077;BME280;4574;51.072;17.174;2022-11-20T05:17:11;99850.66;;;-3.96;100.00
9077;BME280;4574;51.072;17.174;2022-11-20T05:19:40;99843.03;;;-3.98;100.00
9077;BME280;4574;51.072;17.174;2022-11-20T05:22:08;99841.88;;;-4.11;100.00
9077;BME280;4574;51.072;17.174;2022-11-20T05:24:36;99843.56;;;-4.10;100.00
9077;BME280;4574;51.072;17.174;2022-11-20T05:27:05;99841.06;;;-4.12;100.00
9077;BME280;4574;51.072;17.174;2022-11-20T05:29:33;99842.66;;;-4.09;100.00
9077;BME280;4574;51.072;17.174;2022-11-20T05:32:02;99842.53;;;-4.06;100.00
9077;BME280;4574;51.072;17.174;2022-11-20T05:34:31;99838.13;;;-4.04;100.00
9077;BME280;4574;51.072;17.174;2022-11-20T05:37:00;99828.84;;;-4.08;100.00
9077;BME280;4574;51.072;17.174;2022-11-20T05:39:28;99837.31;;;-4.05;100.00
9077;BME280;4574;51.072;17.174;2022-11-20T05:41:57;99838.13;;;-4.04;100.00
9077;BME280;4574;51.072;17.174;2022-11-20T05:44:39;99834.34;;;-4.16;100.00
9077;BME280;4574;51.072;17.174;2022-11-20T05:47:07;99833.63;;;-4.19;100.00
9077;BME280;4574;51.072;17.174;2022-11-20T05:49:37;99837.00;;;-4.37;100.00
9077;BME280;4574;51.072;17.174;2022-11-20T05:52:06;99841.69;;;-4.47;100.00
9077;BME280;4574;51.072;17.174;2022-11-20T05:54:34;99830.69;;;-4.52;100.00
9077;BME280;4574;51.072;17.174;2022-11-20T05:57:03;99833.38;;;-4.53;100.00
9077;BME280;4574;51.072;17.174;2022-11-20T05:59:31;99827.41;;;-4.55;100.00
9077;BME280;4574;51.072;17.174;2022-11-20T06:01:59;99825.75;;;-4.56;100.00
9077;BME280;4574;51.072;17.174;2022-11-20T06:04:28;99825.63;;;-4.53;100.00
9077;BME280;4574;51.072;17.174;2022-11-20T06:06:58;99820.38;;;-4.52;100.00
9077;BME280;4574;51.072;17.174;2022-11-20T06:09:26;99821.81;;;-4.45;100.00
9077;BME280;4574;51.072;17.174;2022-11-20T06:11:55;99820.72;;;-4.39;100.00
9077;BME280;4574;51.072;17.174;2022-11-20T06:14:23;99821.38;;;-4.34;100.00
9077;BME280;4574;51.072;17.174;2022-11-20T06:16:52;99823.69;;;-4.28;100.00
9077;BME280;4574;51.072;17.174;2022-11-20T06:19:20;99815.16;;;-4.30;100.00
9077;BME280;4574;51.072;17.174;2022-11-20T06:21:49;99824.41;;;-4.25;100.00
9077;BME280;4574;51.072;17.174;2022-11-20T06:24:19;99819.13;;;-4.22;100.00
9077;BME280;4574;51.072;17.174;2022-11-20T06:26:47;99810.38;;;-4.19;100.00
9077;BME280;4574;51.072;17.174;2022-11-20T06:29:16;99787.53;;;-4.28;100.00
9077;BME280;4574;51.072;17.174;2022-11-20T06:31:45;99801.94;;;-4.23;100.00
9077;BME280;4574;51.072;17.174;2022-11-20T06:34:13;99816.41;;;-4.19;100.00
9077;BME280;4574;51.072;17.174;2022-11-20T06:36:41;99802.56;;;-4.18;100.00
9077;BME280;4574;51.072;17.174;2022-11-20T06:39:10;99799.13;;;-4.18;100.00
9077;BME280;4574;51.072;17.174;2022-11-20T06:41:40;99807.66;;;-4.16;100.00
9077;BME280;4574;51.072;17.174;2022-11-20T06:44:08;99812.13;;;-4.20;100.00
9077;BME280;4574;51.072;17.174;2022-11-20T06:46:37;99809.47;;;-4.18;100.00
9077;BME280;4574;51.072;17.174;2022-11-20T06:49:05;99808.66;;;-4.19;100.00
9077;BME280;4574;51.072;17.174;2022-11-20T06:51:34;99807.75;;;-4.18;100.00
9077;BME280;4574;51.072;17.174;2022-11-20T06:54:02;99810.47;;;-4.21;100.00
9077;BME280;4574;51.072;17.174;2022-11-20T06:56:30;99787.66;;;-4.31;100.00
9077;BME280;4574;51.072;17.174;2022-11-20T06:59:03;99813.69;;;-4.16;100.00
9077;BME280;4574;51.072;17.174;2022-11-20T07:01:32;99817.03;;;-4.14;100.00
9077;BME280;4574;51.072;17.174;2022-11-20T07:04:01;99821.31;;;-4.13;100.00
9077;BME280;4574;51.072;17.174;2022-11-20T07:06:30;99823.81;;;-4.11;100.00
9077;BME280;4574;51.072;17.174;2022-11-20T07:08:59;99834.34;;;-4.16;100.00
9077;BME280;4574;51.072;17.174;2022-11-20T07:11:28;99834.41;;;-4.17;100.00
9077;BME280;4574;51.072;17.174;2022-11-20T07:13:57;99818.22;;;-4.21;100.00
9077;BME280;4574;51.072;17.174;2022-11-20T07:16:27;99824.72;;;-4.12;100.00
9077;BME280;4574;51.072;17.174;2022-11-20T07:18:55;99822.63;;;-4.04;100.00
9077;BME280;4574;51.072;17.174;2022-11-20T07:21:24;99816.28;;;-3.97;100.00
9077;BME280;4574;51.072;17.174;2022-11-20T07:23:52;99822.09;;;-3.93;100.00
9077;BME280;4574;51.072;17.174;2022-11-20T07:26:20;99811.63;;;-3.90;100.00
9077;BME280;4574;51.072;17.174;2022-11-20T07:28:49;99807.81;;;-3.81;100.00
9077;BME280;4574;51.072;17.174;2022-11-20T07:31:17;99803.97;;;-3.73;100.00
9077;BME280;4574;51.072;17.174;2022-11-20T07:33:47;99799.28;;;-3.65;100.00
9077;BME280;4574;51.072;17.174;2022-11-20T07:36:16;99789.56;;;-3.60;100.00
9077;BME280;4574;51.072;17.174;2022-11-20T07:38:44;99792.59;;;-3.50;100.00
9077;BME280;4574;51.072;17.174;2022-11-20T07:41:12;99797.97;;;-3.36;100.00
9077;BME280;4574;51.072;17.174;2022-11-20T07:43:41;99792.31;;;-3.26;100.00
9077;BME280;4574;51.072;17.174;2022-11-20T07:46:09;99801.44;;;-3.19;100.00
9077;BME280;4574;51.072;17.174;2022-11-20T07:48:38;99805.13;;;-3.06;100.00
9077;BME280;4574;51.072;17.174;2022-11-20T07:51:07;99790.06;;;-2.98;100.00
9077;BME280;4574;51.072;17.174;2022-11-20T07:53:36;99796.63;;;-2.91;100.00
9077;BME280;4574;51.072;17.174;2022-11-20T07:56:05;99786.13;;;-2.88;100.00
9077;BME280;4574;51.072;17.174;2022-11-20T07:58:34;99789.19;;;-2.80;100.00
9077;BME280;4574;51.072;17.174;2022-11-20T08:01:03;99783.56;;;-2.71;100.00
9077;BME280;4574;51.072;17.174;2022-11-20T08:03:32;99773.81;;;-2.66;100.00
9077;BME280;4574;51.072;17.174;2022-11-20T08:06:01;99786.16;;;-2.54;100.00
9077;BME280;4574;51.072;17.174;2022-11-20T08:08:31;99786.69;;;-2.48;100.00
9077;BME280;4574;51.072;17.174;2022-11-20T08:11:02;99783.72;;;-2.40;100.00
9077;BME280;4574;51.072;17.174;2022-11-20T08:13:47;99784.09;;;-2.31;100.00
9077;BME280;4574;51.072;17.174;2022-11-20T08:16:33;99782.78;;;-2.22;100.00
9077;BME280;4574;51.072;17.174;2022-11-20T08:19:01;99785.97;;;-2.17;100.00
9077;BME280;4574;51.072;17.174;2022-11-20T08:21:30;99778.47;;;-2.06;100.00
9077;BME280;4574;51.072;17.174;2022-11-20T08:24:06;99774.47;;;-1.96;100.00
9077;BME280;4574;51.072;17.174;2022-11-20T08:26:35;99775.69;;;-1.86;100.00
9077;BME280;4574;51.072;17.174;2022-11-20T08:29:04;99778.03;;;-1.82;100.00
9077;BME280;4574;51.072;17.174;2022-11-20T08:31:33;99756.97;;;-1.76;100.00
9077;BME280;4574;51.072;17.174;2022-11-20T08:34:01;99770.69;;;-1.74;100.00
9077;BME280;4574;51.072;17.174;2022-11-20T08:36:35;99770.47;;;-1.69;100.00
9077;BME280;4574;51.072;17.174;2022-11-20T08:39:05;99762.94;;;-1.58;100.00
9077;BME280;4574;51.072;17.174;2022-11-20T08:41:33;99754.81;;;-1.52;100.00
9077;BME280;4574;51.072;17.174;2022-11-20T08:44:05;99763.84;;;-1.44;100.00
9077;BME280;4574;51.072;17.174;2022-11-20T08:46:35;99762.69;;;-1.38;100.00
9077;BME280;4574;51.072;17.174;2022-11-20T08:49:05;99746.38;;;-1.40;100.00
9077;BME280;4574;51.072;17.174;2022-11-20T08:51:34;99762.31;;;-1.17;100.00
9077;BME280;4574;51.072;17.174;2022-11-20T08:54:06;99759.50;;;-1.13;100.00
9077;BME280;4574;51.072;17.174;2022-11-20T08:56:35;99760.41;;;-1.14;100.00
9077;BME280;4574;51.072;17.174;2022-11-20T08:59:03;99763.66;;;-1.10;100.00
9077;BME280;4574;51.072;17.174;2022-11-20T09:01:52;99753.97;;;-1.07;100.00
9077;BME280;4574;51.072;17.174;2022-11-20T09:04:20;99758.63;;;-0.98;100.00
9077;BME280;4574;51.072;17.174;2022-11-20T09:06:49;99755.34;;;-0.86;100.00
9077;BME280;4574;51.072;17.174;2022-11-20T09:09:20;99761.09;;;-0.81;100.00
9077;BME280;4574;51.072;17.174;2022-11-20T09:11:49;99748.88;;;-0.79;100.00
9077;BME280;4574;51.072;17.174;2022-11-20T09:14:17;99758.25;;;-0.76;100.00
9077;BME280;4574;51.072;17.174;2022-11-20T09:16:46;99758.72;;;-0.70;100.00
9077;BME280;4574;51.072;17.174;2022-11-20T09:19:14;99741.03;;;-0.63;100.00
9077;BME280;4574;51.072;17.174;2022-11-20T09:22:03;99751.53;;;-0.51;100.00
9077;BME280;4574;51.072;17.174;2022-11-20T09:24:33;99746.53;;;-0.54;100.00
9077;BME280;4574;51.072;17.174;2022-11-20T09:27:03;99750.97;;;-0.56;100.00
9077;BME280;4574;51.072;17.174;2022-11-20T09:29:32;99748.94;;;-0.51;100.00
9077;BME280;4574;51.072;17.174;2022-11-20T09:32:00;99739.41;;;-0.50;100.00
9077;BME280;4574;51.072;17.174;2022-11-20T09:34:28;99735.34;;;-0.40;100.00
9077;BME280;4574;51.072;17.174;2022-11-20T09:36:57;99721.13;;;-0.35;100.00
9077;BME280;4574;51.072;17.174;2022-11-20T09:39:33;99731.53;;;-0.21;100.00
9077;BME280;4574;51.072;17.174;2022-11-20T09:45:05;99719.94;;;-0.15;100.00
9077;BME280;4574;51.072;17.174;2022-11-20T09:47:51;99721.88;;;-0.05;100.00
9077;BME280;4574;51.072;17.174;2022-11-20T09:50:27;99718.16;;;-0.01;100.00
9077;BME280;4574;51.072;17.174;2022-11-20T09:53:10;99713.06;;;0.11;100.00
9077;BME280;4574;51.072;17.174;2022-11-20T09:55:41;99698.84;;;0.17;100.00
9077;BME280;4574;51.072;17.174;2022-11-20T09:58:15;99676.56;;;0.13;100.00
9077;BME280;4574;51.072;17.174;2022-11-20T10:00:44;99694.81;;;0.25;100.00
9077;BME280;4574;51.072;17.174;2022-11-20T10:03:16;99709.97;;;0.33;100.00
9077;BME280;4574;51.072;17.174;2022-11-20T10:05:49;99708.94;;;0.35;100.00
9077;BME280;4574;51.072;17.174;2022-11-20T10:08:21;99705.13;;;0.41;100.00
9077;BME280;4574;51.072;17.174;2022-11-20T10:10:58;99713.28;;;0.49;100.00
9077;BME280;4574;51.072;17.174;2022-11-20T10:13:38;99710.31;;;0.41;100.00
9077;BME280;4574;51.072;17.174;2022-11-20T10:16:15;99701.59;;;0.42;100.00
9077;BME280;4574;51.072;17.174;2022-11-20T10:18:57;99699.34;;;0.50;100.00
9077;BME280;4574;51.072;17.174;2022-11-20T10:21:37;99688.63;;;0.54;100.00
9077;BME280;4574;51.072;17.174;2022-11-20T10:24:24;99682.41;;;0.57;100.00
9077;BME280;4574;51.072;17.174;2022-11-20T10:27:08;99688.69;;;0.67;100.00
9077;BME280;4574;51.072;17.174;2022-11-20T10:29:45;99681.50;;;0.70;100.00
9077;BME280;4574;51.072;17.174;2022-11-20T10:32:16;99678.41;;;0.78;100.00
9077;BME280;4574;51.072;17.174;2022-11-20T10:34:50;99682.22;;;0.86;100.00
9077;BME280;4574;51.072;17.174;2022-11-20T10:37:23;99650.19;;;0.84;100.00
9077;BME280;4574;51.072;17.174;2022-11-20T10:39:58;99668.25;;;1.00;100.00
9077;BME280;4574;51.072;17.174;2022-11-20T10:42:33;99657.63;;;1.03;100.00
9077;BME280;4574;51.072;17.174;2022-11-20T10:45:15;99651.59;;;1.02;100.00
9077;BME280;4574;51.072;17.174;2022-11-20T10:47:46;99649.94;;;1.01;100.00
9077;BME280;4574;51.072;17.174;2022-11-20T10:50:19;99657.44;;;1.06;100.00
9077;BME280;4574;51.072;17.174;2022-11-20T10:52:55;99659.56;;;1.13;100.00
9077;BME280;4574;51.072;17.174;2022-11-20T10:55:30;99661.94;;;1.16;100.00
9077;BME280;4574;51.072;17.174;2022-11-20T10:58:10;99657.25;;;1.21;100.00
9077;BME280;4574;51.072;17.174;2022-11-20T11:00:41;99653.72;;;1.22;100.00
9077;BME280;4574;51.072;17.174;2022-11-20T11:03:20;99657.69;;;1.27;100.00
9077;BME280;4574;51.072;17.174;2022-11-20T11:05:54;99654.66;;;1.33;100.00
9077;BME280;4574;51.072;17.174;2022-11-20T11:08:28;99652.56;;;1.38;100.00
9077;BME280;4574;51.072;17.174;2022-11-20T11:11:18;99650.59;;;1.42;100.00
9077;BME280;4574;51.072;17.174;2022-11-20T11:13:50;99640.91;;;1.44;100.00
9077;BME280;4574;51.072;17.174;2022-11-20T11:16:23;99642.91;;;1.53;100.00
9077;BME280;4574;51.072;17.174;2022-11-20T11:19:03;99634.13;;;1.54;100.00
9077;BME280;4574;51.072;17.174;2022-11-20T11:21:31;99637.06;;;1.62;100.00
9077;BME280;4574;51.072;17.174;2022-11-20T11:24:02;99632.22;;;1.68;100.00
9077;BME280;4574;51.072;17.174;2022-11-20T11:26:55;99622.22;;;1.75;100.00
9077;BME280;4574;51.072;17.174;2022-11-20T11:29:26;99622.63;;;1.81;100.00
9077;BME280;4574;51.072;17.174;2022-11-20T11:32:04;99624.19;;;1.96;100.00
9077;BME280;4574;51.072;17.174;2022-11-20T11:34:33;99623.97;;;1.99;97.61
9077;BME280;4574;51.072;17.174;2022-11-20T11:37:02;99617.81;;;2.00;97.47
9077;BME280;4574;51.072;17.174;2022-11-20T11:39:32;99591.91;;;1.97;97.93
9077;BME280;4574;51.072;17.174;2022-11-20T11:42:01;99583.75;;;2.02;96.83
9077;BME280;4574;51.072;17.174;2022-11-20T11:44:33;99601.66;;;2.19;94.49
9077;BME280;4574;51.072;17.174;2022-11-20T11:47:23;99608.66;;;2.18;94.14
9077;BME280;4574;51.072;17.174;2022-11-20T11:50:02;99607.28;;;2.25;96.67
9077;BME280;4574;51.072;17.174;2022-11-20T11:52:31;99594.50;;;2.33;96.97
9077;BME280;4574;51.072;17.174;2022-11-20T11:55:07;99593.44;;;2.36;96.75
9077;BME280;4574;51.072;17.174;2022-11-20T11:57:45;99589.22;;;2.46;96.23
9077;BME280;4574;51.072;17.174;2022-11-20T12:00:18;99585.66;;;2.47;95.23
9077;BME280;4574;51.072;17.174;2022-11-20T12:02:57;99577.72;;;2.48;95.11
9077;BME280;4574;51.072;17.174;2022-11-20T12:05:36;99575.84;;;2.50;93.97
9077;BME280;4574;51.072;17.174;2022-11-20T12:08:14;99573.94;;;2.52;93.34
9077;BME280;4574;51.072;17.174;2022-11-20T12:10:49;99574.13;;;2.62;94.76
9077;BME280;4574;51.072;17.174;2022-11-20T12:13:37;99570.34;;;2.65;94.54
9077;BME280;4574;51.072;17.174;2022-11-20T12:16:12;99567.13;;;2.73;94.80
9077;BME280;4574;51.072;17.174;2022-11-20T12:18:42;99571.91;;;2.79;95.21
9077;BME280;4574;51.072;17.174;2022-11-20T12:21:20;99562.66;;;2.86;95.95
9077;BME280;4574;51.072;17.174;2022-11-20T12:26:57;99560.81;;;3.10;95.35
9077;BME280;4574;51.072;17.174;2022-11-20T12:29:38;99570.56;;;3.19;95.50
9077;BME280;4574;51.072;17.174;2022-11-20T12:32:35;99571.44;;;3.30;95.75
9077;BME280;4574;51.072;17.174;2022-11-20T12:35:17;99573.44;;;3.38;94.38
9077;BME280;4574;51.072;17.174;2022-11-20T12:38:02;99570.63;;;3.41;94.18
9077;BME280;4574;51.072;17.174;2022-11-20T12:40:41;99557.78;;;3.49;94.37
9077;BME280;4574;51.072;17.174;2022-11-20T12:43:18;99567.31;;;3.61;94.15
9077;BME280;4574;51.072;17.174;2022-11-20T12:46:19;99574.31;;;3.71;93.84
9077;BME280;4574;51.072;17.174;2022-11-20T12:49:19;99565.63;;;3.82;92.03
9077;BME280;4574;51.072;17.174;2022-11-20T12:52:05;99564.19;;;3.89;91.43
9077;BME280;4574;51.072;17.174;2022-11-20T12:55:11;99557.75;;;3.92;89.23
9077;BME280;4574;51.072;17.174;2022-11-20T12:57:46;99561.06;;;4.05;90.17
9077;BME280;4574;51.072;17.174;2022-11-20T13:00:19;99559.94;;;4.19;91.45
9077;BME280;4574;51.072;17.174;2022-11-20T13:03:16;99551.97;;;4.20;88.18
9077;BME280;4574;51.072;17.174;2022-11-20T13:05:57;99559.81;;;4.31;89.56
9077;BME280;4574;51.072;17.174;2022-11-20T13:08:31;99546.56;;;4.44;87.92
9077;BME280;4574;51.072;17.174;2022-11-20T13:11:07;99546.38;;;4.56;87.78
9077;BME280;4574;51.072;17.174;2022-11-20T13:13:45;99543.59;;;4.69;87.30
9077;BME280;4574;51.072;17.174;2022-11-20T13:16:23;99539.13;;;4.80;87.67
9077;BME280;4574;51.072;17.174;2022-11-20T13:18:54;99522.16;;;4.84;86.45
9077;BME280;4574;51.072;17.174;2022-11-20T13:21:36;99525.03;;;4.81;84.94
9077;BME280;4574;51.072;17.174;2022-11-20T13:24:06;99511.94;;;4.81;85.98
9077;BME280;4574;51.072;17.174;2022-11-20T13:26:34;99512.63;;;4.83;85.47
9077;BME280;4574;51.072;17.174;2022-11-20T13:29:08;99497.88;;;4.82;85.35
9077;BME280;4574;51.072;17.174;2022-11-20T13:31:42;99503.63;;;4.97;86.25
9077;BME280;4574;51.072;17.174;2022-11-20T13:34:14;99494.41;;;5.02;85.95
9077;BME280;4574;51.072;17.174;2022-11-20T13:36:54;99498.06;;;5.11;85.08